sensor_id;sensor_type;location;lat;lon;timestamp;P1;durP1;ratioP1;P2;durP2;ratioP2
5939;SDS011;2995;-31.998;115.906;2024-02-15T00:01:04;7.73;;;2.30;;
5939;SDS011;2995;-31.998;115.906;2024-02-15T00:03:36;6.30;;;1.50;;
5939;SDS011;2995;-31.998;115.906;2024-02-15T00:06:07;5.80;;;1.80;;
5939;SDS011;2995;-31.998;115.906;2024-02-15T00:08:38;6.07;;;1.60;;
5939;SDS011;2995;-31.998;115.906;2024-02-15T00:11:10;6.80;;;1.70;;
5939;SDS011;2995;-31.998;115.906;2024-02-15T00:13:44;15.13;;;2.43;;
5939;SDS011;2995;-31.998;115.906;2024-02-15T00:16:16;4.67;;;1.90;;
5939;SDS011;2995;-31.998;115.906;2024-02-15T00:18:48;4.47;;;2.27;;
5939;SDS011;2995;-31.998;115.906;2024-02-15T00:21:19;5.70;;;1.77;;
5939;SDS011;2995;-31.998;115.906;2024-02-15T00:23:50;4.93;;;1.80;;
5939;SDS011;2995;-31.998;115.906;2024-02-15T00:26:23;3.87;;;1.50;;
5939;SDS011;2995;-31.998;115.906;2024-02-15T00:28:56;9.23;;;2.23;;
5939;SDS011;2995;-31.998;115.906;2024-02-15T00:31:27;5.77;;;1.70;;
5939;SDS011;2995;-31.998;115.906;2024-02-15T00:33:58;8.43;;;2.10;;
5939;SDS011;2995;-31.998;115.906;2024-02-15T00:36:29;3.80;;;1.83;;
5939;SDS011;2995;-31.998;115.906;2024-02-15T00:39:00;6.03;;;2.10;;
5939;SDS011;2995;-31.998;115.906;2024-02-15T00:41:32;5.40;;;1.60;;
5939;SDS011;2995;-31.998;115.906;2024-02-15T00:44:05;6.50;;;1.67;;
5939;SDS011;2995;-31.998;115.906;2024-02-15T00:46:37;9.03;;;1.83;;
5939;SDS011;2995;-31.998;115.906;2024-02-15T00:49:09;4.40;;;1.57;;
5939;SDS011;2995;-31.998;115.906;2024-02-15T00:51:40;3.23;;;1.80;;
5939;SDS011;2995;-31.998;115.906;2024-02-15T00:54:12;4.10;;;1.43;;
5939;SDS011;2995;-31.998;115.906;2024-02-15T00:56:43;9.37;;;2.10;;
5939;SDS011;2995;-31.998;115.906;2024-02-15T00:59:16;6.80;;;2.20;;
5939;SDS011;2995;-31.998;115.906;2024-02-15T01:01:48;6.73;;;1.83;;
5939;SDS011;2995;-31.998;115.906;2024-02-15T01:04:19;7.10;;;1.70;;
5939;SDS011;2995;-31.998;115.906;2024-02-15T01:06:51;6.03;;;1.93;;
5939;SDS011;2995;-31.998;115.906;2024-02-15T01:09:22;4.53;;;1.93;;
5939;SDS011;2995;-31.998;115.906;2024-02-15T01:11:53;3.80;;;1.97;;
5939;SDS011;2995;-31.998;115.906;2024-02-15T01:14:26;6.83;;;1.97;;
5939;SDS011;2995;-31.998;115.906;2024-02-15T01:16:58;6.60;;;1.87;;
5939;SDS011;2995;-31.998;115.906;2024-02-15T01:19:29;7.20;;;1.90;;
5939;SDS011;2995;-31.998;115.906;2024-02-15T01:22:00;10.10;;;2.30;;
5939;SDS011;2995;-31.998;115.906;2024-02-15T01:24:32;4.23;;;1.40;;
5939;SDS011;2995;-31.998;115.906;2024-02-15T01:27:03;7.10;;;1.83;;
5939;SDS011;2995;-31.998;115.906;2024-02-15T01:29:37;4.70;;;1.67;;
5939;SDS011;2995;-31.998;115.906;2024-02-15T01:32:09;7.20;;;1.40;;
5939;SDS011;2995;-31.998;115.906;2024-02-15T01:34:40;4.23;;;1.57;;
5939;SDS011;2995;-31.998;115.906;2024-02-15T01:37:11;6.70;;;2.30;;
5939;SDS011;2995;-31.998;115.906;2024-02-15T01:39:43;4.83;;;1.70;;
5939;SDS011;2995;-31.998;115.906;2024-02-15T01:42:14;7.90;;;1.80;;
5939;SDS011;2995;-31.998;115.906;2024-02-15T01:44:48;7.47;;;1.40;;
5939;SDS011;2995;-31.998;115.906;2024-02-15T01:47:19;7.70;;;2.07;;
5939;SDS011;2995;-31.998;115.906;2024-02-15T01:49:50;5.40;;;2.00;;
5939;SDS011;2995;-31.998;115.906;2024-02-15T01:52:23;5.77;;;1.90;;
5939;SDS011;2995;-31.998;115.906;2024-02-15T01:54:56;9.63;;;2.10;;
5939;SDS011;2995;-31.998;115.906;2024-02-15T01:57:29;3.63;;;1.27;;
5939;SDS011;2995;-31.998;115.906;2024-02-15T02:00:02;5.43;;;1.70;;
5939;SDS011;2995;-31.998;115.906;2024-02-15T02:02:36;6.10;;;1.83;;
5939;SDS011;2995;-31.998;115.906;2024-02-15T02:05:10;6.33;;;1.87;;
5939;SDS011;2995;-31.998;115.906;2024-02-15T02:07:42;4.57;;;1.60;;
5939;SDS011;2995;-31.998;115.906;2024-02-15T02:10:13;5.10;;;1.97;;
5939;SDS011;2995;-31.998;115.906;2024-02-15T02:12:45;12.93;;;2.10;;
5939;SDS011;2995;-31.998;115.906;2024-02-15T02:15:18;3.40;;;1.70;;
5939;SDS011;2995;-31.998;115.906;2024-02-15T02:17:50;5.77;;;2.03;;
5939;SDS011;2995;-31.998;115.906;2024-02-15T02:20:21;3.93;;;1.67;;
5939;SDS011;2995;-31.998;115.906;2024-02-15T02:22:53;4.73;;;1.43;;
5939;SDS011;2995;-31.998;115.906;2024-02-15T02:25:35;4.80;;;1.30;;
5939;SDS011;2995;-31.998;115.906;2024-02-15T02:28:06;6.53;;;2.00;;
5939;SDS011;2995;-31.998;115.906;2024-02-15T02:30:38;3.20;;;1.70;;
5939;SDS011;2995;-31.998;115.906;2024-02-15T02:33:12;7.07;;;2.30;;
5939;SDS011;2995;-31.998;115.906;2024-02-15T02:35:45;7.57;;;1.80;;
5939;SDS011;2995;-31.998;115.906;2024-02-15T02:38:16;5.27;;;1.70;;
5939;SDS011;2995;-31.998;115.906;2024-02-15T02:40:50;4.40;;;1.43;;
5939;SDS011;2995;-31.998;115.906;2024-02-15T02:43:21;3.00;;;1.20;;
5939;SDS011;2995;-31.998;115.906;2024-02-15T02:45:52;7.40;;;1.60;;
5939;SDS011;2995;-31.998;115.906;2024-02-15T02:48:23;5.87;;;1.80;;
5939;SDS011;2995;-31.998;115.906;2024-02-15T02:50:54;3.70;;;1.80;;
5939;SDS011;2995;-31.998;115.906;2024-02-15T02:53:26;7.50;;;1.63;;
5939;SDS011;2995;-31.998;115.906;2024-02-15T02:55:59;5.10;;;1.57;;
5939;SDS011;2995;-31.998;115.906;2024-02-15T02:58:31;4.10;;;1.37;;
5939;SDS011;2995;-31.998;115.906;2024-02-15T03:01:02;3.60;;;1.50;;
5939;SDS011;2995;-31.998;115.906;2024-02-15T03:03:34;3.03;;;1.90;;
5939;SDS011;2995;-31.998;115.906;2024-02-15T03:06:06;12.73;;;2.07;;
5939;SDS011;2995;-31.998;115.906;2024-02-15T03:08:37;6.60;;;1.40;;
5939;SDS011;2995;-31.998;115.906;2024-02-15T03:11:10;8.93;;;1.50;;
5939;SDS011;2995;-31.998;115.906;2024-02-15T03:13:44;4.80;;;1.40;;
5939;SDS011;2995;-31.998;115.906;2024-02-15T03:16:15;4.60;;;1.53;;
5939;SDS011;2995;-31.998;115.906;2024-02-15T03:18:46;5.23;;;1.40;;
5939;SDS011;2995;-31.998;115.906;2024-02-15T03:21:18;5.63;;;1.40;;
5939;SDS011;2995;-31.998;115.906;2024-02-15T03:23:50;3.80;;;1.50;;
5939;SDS011;2995;-31.998;115.906;2024-02-15T03:26:28;8.07;;;1.67;;
5939;SDS011;2995;-31.998;115.906;2024-02-15T03:29:03;7.27;;;1.67;;
5939;SDS011;2995;-31.998;115.906;2024-02-15T03:31:34;11.53;;;2.83;;
5939;SDS011;2995;-31.998;115.906;2024-02-15T03:34:06;2.97;;;1.33;;
5939;SDS011;2995;-31.998;115.906;2024-02-15T03:36:41;6.40;;;1.47;;
5939;SDS011;2995;-31.998;115.906;2024-02-15T03:39:12;6.73;;;1.60;;
5939;SDS011;2995;-31.998;115.906;2024-02-15T03:41:45;5.73;;;1.50;;
5939;SDS011;2995;-31.998;115.906;2024-02-15T03:44:17;4.23;;;1.40;;
5939;SDS011;2995;-31.998;115.906;2024-02-15T03:46:48;3.53;;;1.47;;
5939;SDS011;2995;-31.998;115.906;2024-02-15T03:49:19;9.07;;;1.53;;
5939;SDS011;2995;-31.998;115.906;2024-02-15T03:51:51;4.30;;;1.30;;
5939;SDS011;2995;-31.998;115.906;2024-02-15T03:54:22;8.80;;;1.50;;
5939;SDS011;2995;-31.998;115.906;2024-02-15T03:56:55;4.80;;;1.40;;
5939;SDS011;2995;-31.998;115.906;2024-02-15T03:59:26;3.10;;;1.20;;
5939;SDS011;2995;-31.998;115.906;2024-02-15T04:01:58;2.67;;;1.30;;
5939;SDS011;2995;-31.998;115.906;2024-02-15T04:04:30;4.10;;;1.57;;
5939;SDS011;2995;-31.998;115.906;2024-02-15T04:07:03;4.97;;;1.53;;
5939;SDS011;2995;-31.998;115.906;2024-02-15T04:09:34;7.10;;;2.23;;
5939;SDS011;2995;-31.998;115.906;2024-02-15T04:12:07;5.30;;;1.80;;
5939;SDS011;2995;-31.998;115.906;2024-02-15T04:14:40;7.50;;;1.50;;
5939;SDS011;2995;-31.998;115.906;2024-02-15T04:17:11;6.50;;;1.57;;
5939;SDS011;2995;-31.998;115.906;2024-02-15T04:19:44;3.90;;;1.60;;
5939;SDS011;2995;-31.998;115.906;2024-02-15T04:22:16;5.63;;;1.33;;
5939;SDS011;2995;-31.998;115.906;2024-02-15T04:24:48;5.07;;;1.50;;
5939;SDS011;2995;-31.998;115.906;2024-02-15T04:27:21;4.20;;;1.77;;
5939;SDS011;2995;-31.998;115.906;2024-02-15T04:29:52;6.60;;;1.53;;
5939;SDS011;2995;-31.998;115.906;2024-02-15T04:32:23;5.10;;;1.63;;
5939;SDS011;2995;-31.998;115.906;2024-02-15T04:34:55;4.50;;;1.20;;
5939;SDS011;2995;-31.998;115.906;2024-02-15T04:37:26;5.40;;;1.47;;
5939;SDS011;2995;-31.998;115.906;2024-02-15T04:39:58;6.30;;;1.40;;
5939;SDS011;2995;-31.998;115.906;2024-02-15T04:42:36;5.80;;;1.27;;
5939;SDS011;2995;-31.998;115.906;2024-02-15T04:45:09;8.33;;;1.80;;
5939;SDS011;2995;-31.998;115.906;2024-02-15T04:47:41;7.87;;;1.80;;
5939;SDS011;2995;-31.998;115.906;2024-02-15T04:50:16;4.07;;;1.40;;
5939;SDS011;2995;-31.998;115.906;2024-02-15T04:52:47;2.90;;;1.40;;
5939;SDS011;2995;-31.998;115.906;2024-02-15T04:55:19;5.50;;;1.70;;
5939;SDS011;2995;-31.998;115.906;2024-02-15T04:57:54;5.00;;;1.50;;
5939;SDS011;2995;-31.998;115.906;2024-02-15T05:00:26;2.20;;;1.30;;
5939;SDS011;2995;-31.998;115.906;2024-02-15T05:02:57;4.23;;;1.60;;
5939;SDS011;2995;-31.998;115.906;2024-02-15T05:05:29;3.80;;;1.50;;
5939;SDS011;2995;-31.998;115.906;2024-02-15T05:08:00;3.30;;;1.63;;
5939;SDS011;2995;-31.998;115.906;2024-02-15T05:10:31;4.03;;;1.40;;
5939;SDS011;2995;-31.998;115.906;2024-02-15T05:13:05;1.83;;;1.00;;
5939;SDS011;2995;-31.998;115.906;2024-02-15T05:15:41;4.13;;;1.20;;
5939;SDS011;2995;-31.998;115.906;2024-02-15T05:18:12;8.00;;;1.23;;
5939;SDS011;2995;-31.998;115.906;2024-02-15T05:20:44;3.20;;;1.20;;
5939;SDS011;2995;-31.998;115.906;2024-02-15T05:23:16;3.20;;;1.30;;
5939;SDS011;2995;-31.998;115.906;2024-02-15T05:25:48;5.87;;;1.67;;
5939;SDS011;2995;-31.998;115.906;2024-02-15T05:28:22;3.60;;;1.70;;
5939;SDS011;2995;-31.998;115.906;2024-02-15T05:33:40;3.63;;;1.40;;
5939;SDS011;2995;-31.998;115.906;2024-02-15T05:36:14;4.03;;;1.40;;
5939;SDS011;2995;-31.998;115.906;2024-02-15T05:38:46;3.47;;;1.20;;
5939;SDS011;2995;-31.998;115.906;2024-02-15T05:41:19;4.17;;;1.33;;
5939;SDS011;2995;-31.998;115.906;2024-02-15T05:43:52;3.00;;;1.53;;
5939;SDS011;2995;-31.998;115.906;2024-02-15T05:46:24;3.50;;;1.30;;
5939;SDS011;2995;-31.998;115.906;2024-02-15T05:48:57;2.20;;;1.20;;
5939;SDS011;2995;-31.998;115.906;2024-02-15T05:51:28;4.50;;;1.53;;
5939;SDS011;2995;-31.998;115.906;2024-02-15T05:54:00;4.07;;;1.10;;
5939;SDS011;2995;-31.998;115.906;2024-02-15T05:56:31;4.07;;;1.13;;
5939;SDS011;2995;-31.998;115.906;2024-02-15T05:59:04;2.27;;;1.30;;
5939;SDS011;2995;-31.998;115.906;2024-02-15T06:01:37;3.33;;;1.47;;
5939;SDS011;2995;-31.998;115.906;2024-02-15T06:04:09;2.17;;;1.23;;
5939;SDS011;2995;-31.998;115.906;2024-02-15T06:06:40;4.07;;;1.23;;
5939;SDS011;2995;-31.998;115.906;2024-02-15T06:09:16;2.33;;;1.20;;
5939;SDS011;2995;-31.998;115.906;2024-02-15T06:11:51;2.50;;;1.00;;
5939;SDS011;2995;-31.998;115.906;2024-02-15T06:14:26;4.67;;;1.37;;
5939;SDS011;2995;-31.998;115.906;2024-02-15T06:16:58;4.53;;;1.27;;
5939;SDS011;2995;-31.998;115.906;2024-02-15T06:19:29;4.23;;;1.30;;
5939;SDS011;2995;-31.998;115.906;2024-02-15T06:22:00;4.10;;;1.80;;
5939;SDS011;2995;-31.998;115.906;2024-02-15T06:24:32;3.00;;;1.47;;
5939;SDS011;2995;-31.998;115.906;2024-02-15T06:27:04;3.33;;;1.60;;
5939;SDS011;2995;-31.998;115.906;2024-02-15T06:29:38;5.60;;;1.03;;
5939;SDS011;2995;-31.998;115.906;2024-02-15T06:32:25;3.47;;;1.37;;
5939;SDS011;2995;-31.998;115.906;2024-02-15T06:35:12;4.40;;;1.57;;
5939;SDS011;2995;-31.998;115.906;2024-02-15T06:38:01;8.20;;;1.80;;
5939;SDS011;2995;-31.998;115.906;2024-02-15T06:40:48;3.17;;;1.23;;
5939;SDS011;2995;-31.998;115.906;2024-02-15T06:43:20;4.17;;;1.20;;
5939;SDS011;2995;-31.998;115.906;2024-02-15T06:45:53;2.70;;;1.30;;
5939;SDS011;2995;-31.998;115.906;2024-02-15T06:48:25;3.30;;;1.20;;
5939;SDS011;2995;-31.998;115.906;2024-02-15T06:50:57;3.07;;;1.20;;
5939;SDS011;2995;-31.998;115.906;2024-02-15T06:53:29;2.57;;;1.27;;
5939;SDS011;2995;-31.998;115.906;2024-02-15T06:56:01;7.93;;;1.20;;
5939;SDS011;2995;-31.998;115.906;2024-02-15T06:58:32;9.20;;;1.50;;
5939;SDS011;2995;-31.998;115.906;2024-02-15T07:01:06;3.30;;;1.33;;
5939;SDS011;2995;-31.998;115.906;2024-02-15T07:03:39;3.17;;;1.40;;
5939;SDS011;2995;-31.998;115.906;2024-02-15T07:06:11;3.37;;;1.40;;
5939;SDS011;2995;-31.998;115.906;2024-02-15T07:08:42;2.80;;;1.30;;
5939;SDS011;2995;-31.998;115.906;2024-02-15T07:11:14;4.23;;;1.37;;
5939;SDS011;2995;-31.998;115.906;2024-02-15T07:13:45;6.77;;;1.60;;
5939;SDS011;2995;-31.998;115.906;2024-02-15T07:16:21;6.27;;;1.60;;
5939;SDS011;2995;-31.998;115.906;2024-02-15T07:18:53;1.77;;;1.07;;
5939;SDS011;2995;-31.998;115.906;2024-02-15T07:21:24;4.40;;;1.13;;
5939;SDS011;2995;-31.998;115.906;2024-02-15T07:23:57;2.83;;;1.20;;
5939;SDS011;2995;-31.998;115.906;2024-02-15T07:26:29;3.50;;;1.30;;
5939;SDS011;2995;-31.998;115.906;2024-02-15T07:29:01;4.00;;;1.20;;
5939;SDS011;2995;-31.998;115.906;2024-02-15T07:31:36;3.73;;;1.43;;
5939;SDS011;2995;-31.998;115.906;2024-02-15T07:34:07;4.17;;;1.07;;
5939;SDS011;2995;-31.998;115.906;2024-02-15T07:36:38;3.00;;;1.53;;
5939;SDS011;2995;-31.998;115.906;2024-02-15T07:39:11;3.87;;;1.40;;
5939;SDS011;2995;-31.998;115.906;2024-02-15T07:41:49;3.10;;;1.80;;
5939;SDS011;2995;-31.998;115.906;2024-02-15T07:44:21;6.80;;;1.40;;
5939;SDS011;2995;-31.998;115.906;2024-02-15T07:46:58;5.60;;;1.50;;
5939;SDS011;2995;-31.998;115.906;2024-02-15T07:49:31;3.47;;;1.53;;
5939;SDS011;2995;-31.998;115.906;2024-02-15T07:52:02;4.00;;;1.40;;
5939;SDS011;2995;-31.998;115.906;2024-02-15T07:54:35;3.10;;;1.10;;
5939;SDS011;2995;-31.998;115.906;2024-02-15T07:57:06;3.33;;;1.30;;
5939;SDS011;2995;-31.998;115.906;2024-02-15T07:59:37;3.40;;;1.50;;
5939;SDS011;2995;-31.998;115.906;2024-02-15T08:02:11;3.13;;;1.50;;
5939;SDS011;2995;-31.998;115.906;2024-02-15T08:04:44;3.30;;;1.33;;
5939;SDS011;2995;-31.998;115.906;2024-02-15T08:07:16;3.43;;;1.50;;
5939;SDS011;2995;-31.998;115.906;2024-02-15T08:09:47;3.80;;;1.20;;
5939;SDS011;2995;-31.998;115.906;2024-02-15T08:12:19;5.97;;;1.73;;
5939;SDS011;2995;-31.998;115.906;2024-02-15T08:14:51;4.43;;;1.57;;
5939;SDS011;2995;-31.998;115.906;2024-02-15T08:17:26;5.70;;;1.67;;
5939;SDS011;2995;-31.998;115.906;2024-02-15T08:19:57;2.13;;;1.10;;
5939;SDS011;2995;-31.998;115.906;2024-02-15T08:22:29;4.97;;;1.30;;
5939;SDS011;2995;-31.998;115.906;2024-02-15T08:25:00;7.00;;;1.30;;
5939;SDS011;2995;-31.998;115.906;2024-02-15T08:27:32;5.10;;;1.20;;
5939;SDS011;2995;-31.998;115.906;2024-02-15T08:30:08;6.13;;;1.80;;
5939;SDS011;2995;-31.998;115.906;2024-02-15T08:32:42;2.60;;;0.83;;
5939;SDS011;2995;-31.998;115.906;2024-02-15T08:35:14;3.60;;;1.30;;
5939;SDS011;2995;-31.998;115.906;2024-02-15T08:37:45;4.67;;;1.13;;
5939;SDS011;2995;-31.998;115.906;2024-02-15T08:40:18;4.30;;;1.33;;
5939;SDS011;2995;-31.998;115.906;2024-02-15T08:42:51;4.47;;;1.40;;
5939;SDS011;2995;-31.998;115.906;2024-02-15T08:45:22;3.23;;;1.63;;
5939;SDS011;2995;-31.998;115.906;2024-02-15T08:47:56;4.80;;;1.47;;
5939;SDS011;2995;-31.998;115.906;2024-02-15T08:50:30;3.47;;;1.30;;
5939;SDS011;2995;-31.998;115.906;2024-02-15T08:53:02;6.47;;;1.53;;
5939;SDS011;2995;-31.998;115.906;2024-02-15T08:55:33;4.10;;;1.50;;
5939;SDS011;2995;-31.998;115.906;2024-02-15T08:58:04;2.47;;;1.70;;
5939;SDS011;2995;-31.998;115.906;2024-02-15T09:00:37;4.00;;;1.33;;
5939;SDS011;2995;-31.998;115.906;2024-02-15T09:03:13;5.67;;;1.20;;
5939;SDS011;2995;-31.998;115.906;2024-02-15T09:05:45;3.77;;;1.20;;
5939;SDS011;2995;-31.998;115.906;2024-02-15T09:08:16;2.67;;;1.30;;
5939;SDS011;2995;-31.998;115.906;2024-02-15T09:10:49;5.70;;;1.37;;
5939;SDS011;2995;-31.998;115.906;2024-02-15T09:13:20;1.90;;;1.13;;
5939;SDS011;2995;-31.998;115.906;2024-02-15T09:15:52;6.40;;;1.40;;
5939;SDS011;2995;-31.998;115.906;2024-02-15T09:18:25;2.97;;;1.70;;
5939;SDS011;2995;-31.998;115.906;2024-02-15T09:20:57;8.40;;;1.43;;
5939;SDS011;2995;-31.998;115.906;2024-02-15T09:23:28;2.70;;;1.10;;
5939;SDS011;2995;-31.998;115.906;2024-02-15T09:25:59;3.10;;;1.20;;
5939;SDS011;2995;-31.998;115.906;2024-02-15T09:28:30;1.77;;;1.30;;
5939;SDS011;2995;-31.998;115.906;2024-02-15T09:31:02;5.03;;;1.20;;
5939;SDS011;2995;-31.998;115.906;2024-02-15T09:33:35;4.27;;;1.20;;
5939;SDS011;2995;-31.998;115.906;2024-02-15T09:36:06;4.60;;;1.53;;
5939;SDS011;2995;-31.998;115.906;2024-02-15T09:38:38;2.90;;;1.30;;
5939;SDS011;2995;-31.998;115.906;2024-02-15T09:41:09;2.40;;;1.10;;
5939;SDS011;2995;-31.998;115.906;2024-02-15T09:43:41;3.60;;;1.40;;
5939;SDS011;2995;-31.998;115.906;2024-02-15T09:46:13;3.27;;;1.33;;
5939;SDS011;2995;-31.998;115.906;2024-02-15T09:48:47;2.20;;;1.10;;
5939;SDS011;2995;-31.998;115.906;2024-02-15T09:51:24;4.03;;;1.57;;
5939;SDS011;2995;-31.998;115.906;2024-02-15T09:53:57;2.63;;;1.13;;
5939;SDS011;2995;-31.998;115.906;2024-02-15T09:56:29;7.77;;;1.30;;
5939;SDS011;2995;-31.998;115.906;2024-02-15T09:59:03;4.23;;;1.43;;
5939;SDS011;2995;-31.998;115.906;2024-02-15T10:01:37;4.93;;;1.40;;
5939;SDS011;2995;-31.998;115.906;2024-02-15T10:04:11;2.87;;;1.23;;
5939;SDS011;2995;-31.998;115.906;2024-02-15T10:06:43;7.90;;;2.20;;
5939;SDS011;2995;-31.998;115.906;2024-02-15T10:09:27;4.33;;;1.50;;
5939;SDS011;2995;-31.998;115.906;2024-02-15T10:11:59;3.10;;;1.80;;
5939;SDS011;2995;-31.998;115.906;2024-02-15T10:14:33;6.60;;;1.40;;
5939;SDS011;2995;-31.998;115.906;2024-02-15T10:17:07;3.00;;;1.43;;
5939;SDS011;2995;-31.998;115.906;2024-02-15T10:19:41;6.63;;;1.93;;
5939;SDS011;2995;-31.998;115.906;2024-02-15T10:22:13;5.13;;;1.67;;
5939;SDS011;2995;-31.998;115.906;2024-02-15T10:24:45;5.80;;;1.90;;
5939;SDS011;2995;-31.998;115.906;2024-02-15T10:27:16;5.67;;;1.40;;
5939;SDS011;2995;-31.998;115.906;2024-02-15T10:29:55;5.93;;;1.70;;
5939;SDS011;2995;-31.998;115.906;2024-02-15T10:32:45;11.03;;;1.97;;
5939;SDS011;2995;-31.998;115.906;2024-02-15T10:35:22;6.03;;;1.77;;
5939;SDS011;2995;-31.998;115.906;2024-02-15T10:37:54;8.73;;;1.87;;
5939;SDS011;2995;-31.998;115.906;2024-02-15T10:40:36;7.67;;;2.33;;
5939;SDS011;2995;-31.998;115.906;2024-02-15T10:43:09;6.60;;;2.23;;
5939;SDS011;2995;-31.998;115.906;2024-02-15T10:45:40;5.23;;;1.90;;
5939;SDS011;2995;-31.998;115.906;2024-02-15T10:48:12;4.63;;;2.07;;
5939;SDS011;2995;-31.998;115.906;2024-02-15T10:50:46;6.90;;;2.43;;
5939;SDS011;2995;-31.998;115.906;2024-02-15T10:53:21;8.60;;;2.17;;
5939;SDS011;2995;-31.998;115.906;2024-02-15T10:55:59;9.10;;;2.47;;
5939;SDS011;2995;-31.998;115.906;2024-02-15T10:58:39;8.37;;;2.70;;
5939;SDS011;2995;-31.998;115.906;2024-02-15T11:01:16;8.27;;;2.33;;
5939;SDS011;2995;-31.998;115.906;2024-02-15T11:03:50;6.20;;;2.10;;
5939;SDS011;2995;-31.998;115.906;2024-02-15T11:06:29;5.73;;;2.00;;
5939;SDS011;2995;-31.998;115.906;2024-02-15T11:09:02;7.97;;;2.40;;
5939;SDS011;2995;-31.998;115.906;2024-02-15T11:11:34;8.83;;;2.40;;
5939;SDS011;2995;-31.998;115.906;2024-02-15T11:14:25;9.00;;;2.23;;
5939;SDS011;2995;-31.998;115.906;2024-02-15T11:16:58;8.30;;;2.50;;
5939;SDS011;2995;-31.998;115.906;2024-02-15T11:22:25;6.40;;;2.57;;
5939;SDS011;2995;-31.998;115.906;2024-02-15T11:24:57;14.53;;;2.73;;
5939;SDS011;2995;-31.998;115.906;2024-02-15T11:27:28;10.20;;;2.73;;
5939;SDS011;2995;-31.998;115.906;2024-02-15T11:30:01;12.70;;;3.50;;
5939;SDS011;2995;-31.998;115.906;2024-02-15T11:32:39;4.77;;;2.30;;
5939;SDS011;2995;-31.998;115.906;2024-02-15T11:35:14;5.70;;;2.20;;
5939;SDS011;2995;-31.998;115.906;2024-02-15T11:37:55;8.50;;;2.20;;
5939;SDS011;2995;-31.998;115.906;2024-02-15T11:40:26;7.03;;;2.17;;
5939;SDS011;2995;-31.998;115.906;2024-02-15T11:42:58;9.03;;;2.50;;
5939;SDS011;2995;-31.998;115.906;2024-02-15T11:45:30;9.10;;;2.63;;
5939;SDS011;2995;-31.998;115.906;2024-02-15T11:48:07;10.40;;;2.80;;
5939;SDS011;2995;-31.998;115.906;2024-02-15T11:50:39;8.67;;;2.47;;
5939;SDS011;2995;-31.998;115.906;2024-02-15T11:53:13;10.53;;;2.70;;
5939;SDS011;2995;-31.998;115.906;2024-02-15T11:55:44;6.03;;;2.33;;
5939;SDS011;2995;-31.998;115.906;2024-02-15T11:58:16;10.80;;;3.33;;
5939;SDS011;2995;-31.998;115.906;2024-02-15T12:00:58;4.40;;;2.13;;
5939;SDS011;2995;-31.998;115.906;2024-02-15T12:03:45;7.70;;;2.43;;
5939;SDS011;2995;-31.998;115.906;2024-02-15T12:06:45;8.83;;;2.43;;
5939;SDS011;2995;-31.998;115.906;2024-02-15T12:09:43;7.23;;;2.10;;
5939;SDS011;2995;-31.998;115.906;2024-02-15T12:12:33;9.70;;;2.90;;
5939;SDS011;2995;-31.998;115.906;2024-02-15T12:15:20;8.40;;;2.80;;
5939;SDS011;2995;-31.998;115.906;2024-02-15T12:18:17;11.83;;;2.10;;
5939;SDS011;2995;-31.998;115.906;2024-02-15T12:21:04;7.07;;;2.33;;
5939;SDS011;2995;-31.998;115.906;2024-02-15T12:23:38;10.77;;;2.27;;
5939;SDS011;2995;-31.998;115.906;2024-02-15T12:26:13;6.33;;;2.20;;
5939;SDS011;2995;-31.998;115.906;2024-02-15T12:28:53;13.63;;;2.47;;
5939;SDS011;2995;-31.998;115.906;2024-02-15T12:31:24;9.33;;;2.90;;
5939;SDS011;2995;-31.998;115.906;2024-02-15T12:34:02;6.93;;;2.43;;
5939;SDS011;2995;-31.998;115.906;2024-02-15T12:36:35;9.80;;;2.40;;
5939;SDS011;2995;-31.998;115.906;2024-02-15T12:39:08;9.83;;;2.90;;
5939;SDS011;2995;-31.998;115.906;2024-02-15T12:41:49;7.63;;;2.67;;
5939;SDS011;2995;-31.998;115.906;2024-02-15T12:44:20;5.70;;;2.30;;
5939;SDS011;2995;-31.998;115.906;2024-02-15T12:46:56;8.70;;;2.57;;
5939;SDS011;2995;-31.998;115.906;2024-02-15T12:49:29;9.27;;;3.20;;
5939;SDS011;2995;-31.998;115.906;2024-02-15T12:55:13;9.60;;;3.20;;
5939;SDS011;2995;-31.998;115.906;2024-02-15T12:57:48;9.20;;;2.40;;
5939;SDS011;2995;-31.998;115.906;2024-02-15T13:00:22;16.13;;;3.57;;
5939;SDS011;2995;-31.998;115.906;2024-02-15T13:02:55;12.73;;;3.13;;
5939;SDS011;2995;-31.998;115.906;2024-02-15T13:05:29;8.90;;;3.00;;
5939;SDS011;2995;-31.998;115.906;2024-02-15T13:08:02;12.23;;;3.03;;
5939;SDS011;2995;-31.998;115.906;2024-02-15T13:10:36;10.03;;;3.73;;
5939;SDS011;2995;-31.998;115.906;2024-02-15T13:13:10;12.30;;;3.97;;
5939;SDS011;2995;-31.998;115.906;2024-02-15T13:15:43;11.53;;;3.27;;
5939;SDS011;2995;-31.998;115.906;2024-02-15T13:18:14;10.80;;;3.67;;
5939;SDS011;2995;-31.998;115.906;2024-02-15T13:20:45;12.90;;;3.60;;
5939;SDS011;2995;-31.998;115.906;2024-02-15T13:23:19;13.77;;;3.60;;
5939;SDS011;2995;-31.998;115.906;2024-02-15T13:25:51;8.83;;;2.77;;
5939;SDS011;2995;-31.998;115.906;2024-02-15T13:28:26;12.83;;;3.40;;
5939;SDS011;2995;-31.998;115.906;2024-02-15T13:30:58;8.30;;;3.17;;
5939;SDS011;2995;-31.998;115.906;2024-02-15T13:33:29;12.53;;;4.03;;
5939;SDS011;2995;-31.998;115.906;2024-02-15T13:36:00;9.00;;;3.00;;
5939;SDS011;2995;-31.998;115.906;2024-02-15T13:38:33;10.93;;;3.67;;
5939;SDS011;2995;-31.998;115.906;2024-02-15T13:41:04;9.43;;;3.33;;
5939;SDS011;2995;-31.998;115.906;2024-02-15T13:43:37;12.13;;;3.43;;
5939;SDS011;2995;-31.998;115.906;2024-02-15T13:46:08;14.07;;;4.10;;
5939;SDS011;2995;-31.998;115.906;2024-02-15T13:48:40;12.90;;;3.10;;
5939;SDS011;2995;-31.998;115.906;2024-02-15T13:51:11;20.87;;;4.30;;
5939;SDS011;2995;-31.998;115.906;2024-02-15T13:53:42;16.43;;;4.30;;
5939;SDS011;2995;-31.998;115.906;2024-02-15T13:56:14;11.90;;;4.13;;
5939;SDS011;2995;-31.998;115.906;2024-02-15T13:59:03;15.70;;;4.70;;
5939;SDS011;2995;-31.998;115.906;2024-02-15T14:01:35;18.00;;;4.20;;
5939;SDS011;2995;-31.998;115.906;2024-02-15T14:04:11;19.27;;;5.20;;
5939;SDS011;2995;-31.998;115.906;2024-02-15T14:06:43;20.53;;;5.07;;
5939;SDS011;2995;-31.998;115.906;2024-02-15T14:09:14;28.70;;;6.37;;
5939;SDS011;2995;-31.998;115.906;2024-02-15T14:11:46;16.00;;;4.23;;
5939;SDS011;2995;-31.998;115.906;2024-02-15T14:14:19;21.47;;;5.53;;
5939;SDS011;2995;-31.998;115.906;2024-02-15T14:16:51;21.50;;;6.00;;
5939;SDS011;2995;-31.998;115.906;2024-02-15T14:19:23;24.47;;;5.47;;
5939;SDS011;2995;-31.998;115.906;2024-02-15T14:21:54;16.50;;;4.23;;
5939;SDS011;2995;-31.998;115.906;2024-02-15T14:24:28;27.03;;;6.60;;
5939;SDS011;2995;-31.998;115.906;2024-02-15T14:26:59;20.80;;;5.90;;
5939;SDS011;2995;-31.998;115.906;2024-02-15T14:29:33;19.17;;;5.60;;
5939;SDS011;2995;-31.998;115.906;2024-02-15T14:32:11;15.83;;;4.67;;
5939;SDS011;2995;-31.998;115.906;2024-02-15T14:34:58;30.63;;;6.13;;
5939;SDS011;2995;-31.998;115.906;2024-02-15T14:37:29;26.20;;;5.90;;
5939;SDS011;2995;-31.998;115.906;2024-02-15T14:40:00;28.17;;;7.67;;
5939;SDS011;2995;-31.998;115.906;2024-02-15T14:42:33;24.13;;;5.50;;
5939;SDS011;2995;-31.998;115.906;2024-02-15T14:45:07;26.67;;;5.27;;
5939;SDS011;2995;-31.998;115.906;2024-02-15T14:47:39;22.30;;;5.93;;
5939;SDS011;2995;-31.998;115.906;2024-02-15T14:50:10;29.47;;;7.57;;
5939;SDS011;2995;-31.998;115.906;2024-02-15T14:52:41;34.10;;;7.43;;
5939;SDS011;2995;-31.998;115.906;2024-02-15T14:55:12;31.87;;;7.30;;
5939;SDS011;2995;-31.998;115.906;2024-02-15T14:57:45;32.77;;;8.53;;
5939;SDS011;2995;-31.998;115.906;2024-02-15T15:00:19;32.13;;;7.67;;
5939;SDS011;2995;-31.998;115.906;2024-02-15T15:02:57;30.83;;;7.33;;
5939;SDS011;2995;-31.998;115.906;2024-02-15T15:05:29;40.60;;;8.70;;
5939;SDS011;2995;-31.998;115.906;2024-02-15T15:08:16;37.40;;;8.40;;
5939;SDS011;2995;-31.998;115.906;2024-02-15T15:11:03;52.10;;;11.00;;
5939;SDS011;2995;-31.998;115.906;2024-02-15T15:13:50;50.30;;;10.00;;
5939;SDS011;2995;-31.998;115.906;2024-02-15T15:16:23;47.23;;;11.20;;